createdAt,value
2022-09-28T00:00:39.112Z,100318.31
2022-09-28T00:03:07.241Z,100311.53
2022-09-28T00:05:35.519Z,100295.50
2022-09-28T00:08:03.633Z,100286.69
2022-09-28T00:10:33.085Z,100308.56
2022-09-28T00:13:01.895Z,100318.91
2022-09-28T00:15:29.885Z,100307.38
2022-09-28T00:17:57.947Z,100299.03
2022-09-28T00:20:26.107Z,100307.75
2022-09-28T00:22:54.214Z,100307.63
2022-09-28T00:25:22.227Z,100325.16
2022-09-28T00:27:52.573Z,100313.81
2022-09-28T00:30:20.835Z,100311.88
2022-09-28T00:32:48.852Z,100319.81
2022-09-28T00:35:16.947Z,100280.69
2022-09-28T00:37:45.181Z,100319.81
2022-09-28T00:40:13.144Z,100300.94
2022-09-28T00:42:42.935Z,100301.81
2022-09-28T00:45:12.489Z,100318.00
2022-09-28T00:47:46.659Z,100317.16
2022-09-28T00:50:19.266Z,100314.03
2022-09-28T00:52:49.755Z,100305.75
2022-09-28T00:55:21.717Z,100323.69
2022-09-28T00:57:51.687Z,100323.69
2022-09-28T01:00:22.004Z,100321.59
2022-09-28T01:02:50.204Z,100318.75
2022-09-28T01:05:18.314Z,100313.41
2022-09-28T01:07:46.611Z,100319.09
2022-09-28T01:10:14.641Z,100322.44
2022-09-28T01:12:42.691Z,100323.69
2022-09-28T01:15:11.074Z,100317.91
2022-09-28T01:17:49.308Z,100321.22
2022-09-28T01:20:29.169Z,100323.69
2022-09-28T01:23:13.431Z,100315.44
2022-09-28T01:25:43.650Z,100314.59
2022-09-28T01:28:14.406Z,100308.81
2022-09-28T01:30:44.791Z,100306.94
2022-09-28T01:33:14.129Z,100310.84
2022-09-28T01:35:44.099Z,100305.84
2022-09-28T01:38:14.746Z,100321.88
2022-09-28T01:40:42.896Z,100317.44
2022-09-28T01:43:12.256Z,100316.81
2022-09-28T01:45:45.747Z,100306.84
2022-09-28T01:48:15.188Z,100317.91
2022-09-28T01:50:43.545Z,100313.75
2022-09-28T01:53:13.682Z,100304.25
2022-09-28T01:55:43.509Z,100310.09
2022-09-28T01:58:13.321Z,100319.09
2022-09-28T02:00:44.194Z,100312.50
2022-09-28T02:03:13.719Z,100317.00
2022-09-28T02:05:47.440Z,100292.38
2022-09-28T02:08:17.719Z,100311.19
2022-09-28T02:10:47.766Z,100317.19
2022-09-28T02:13:17.667Z,100313.44
2022-09-28T02:15:51.899Z,100307.06
2022-09-28T02:18:20.505Z,100305.50
2022-09-28T02:20:52.653Z,100312.50
2022-09-28T02:23:21.268Z,100295.75
2022-09-28T02:25:52.234Z,100312.84
2022-09-28T02:28:21.670Z,100306.69
2022-09-28T02:30:52.756Z,100309.53
2022-09-28T02:33:23.033Z,100298.00
2022-09-28T02:35:51.175Z,100293.91
2022-09-28T02:38:20.951Z,100302.56
2022-09-28T02:40:56.183Z,100313.94
2022-09-28T02:43:25.264Z,100307.97
2022-09-28T02:46:00.682Z,100294.41
2022-09-28T02:49:00.225Z,100309.34
2022-09-28T02:51:39.395Z,100283.22
2022-09-28T02:54:33.956Z,100302.81
2022-09-28T02:57:13.388Z,100297.56
2022-09-28T02:59:46.255Z,100290.13
2022-09-28T03:02:21.318Z,100301.34
2022-09-28T03:04:53.703Z,100299.31
2022-09-28T03:07:29.075Z,100295.38
2022-09-28T03:10:00.444Z,100284.13
2022-09-28T03:12:29.397Z,100307.69
2022-09-28T03:15:08.871Z,100293.31
2022-09-28T03:17:38.541Z,100293.31
2022-09-28T03:20:07.675Z,100288.38
2022-09-28T03:22:36.048Z,100302.00
2022-09-28T03:25:04.067Z,100297.94
2022-09-28T03:27:32.201Z,100309.25
2022-09-28T03:30:00.460Z,100298.56
2022-09-28T03:32:28.557Z,100307.91
2022-09-28T03:34:58.027Z,100311.19
2022-09-28T03:37:27.755Z,100319.84
2022-09-28T03:39:55.920Z,100294.25
2022-09-28T03:42:23.979Z,100297.84
2022-09-28T03:44:52.597Z,100317.91
2022-09-28T03:47:21.443Z,100321.25
2022-09-28T03:49:49.419Z,100302.16
2022-09-28T03:52:20.131Z,100319.09
2022-09-28T03:54:49.372Z,100325.09
2022-09-28T03:57:17.634Z,100319.09
2022-09-28T03:59:45.807Z,100310.00
2022-09-28T04:02:13.920Z,100325.28
2022-09-28T04:04:43.650Z,100332.47
2022-09-28T04:07:12.799Z,100322.16
2022-09-28T04:09:42.271Z,100305.31
2022-09-28T04:12:10.746Z,100321.88
2022-09-28T04:14:38.772Z,100309.00
2022-09-28T04:17:09.192Z,100337.16
2022-09-28T04:19:37.849Z,100330.19
2022-09-28T04:22:27.253Z,100333.47
2022-09-28T04:24:56.660Z,100335.53
2022-09-28T04:27:42.435Z,100326.69
2022-09-28T04:30:12.726Z,100338.53
2022-09-28T04:32:47.495Z,100324.28
2022-09-28T04:35:15.740Z,100332.56
2022-09-28T04:37:43.839Z,100330.88
2022-09-28T04:40:13.927Z,100333.56
2022-09-28T04:42:42.006Z,100342.41
2022-09-28T04:45:11.128Z,100337.28
2022-09-28T04:47:43.905Z,100335.78
2022-09-28T04:50:30.631Z,100331.00
2022-09-28T04:53:14.944Z,100321.69
2022-09-28T04:55:44.648Z,100336.34
2022-09-28T04:58:12.680Z,100325.00
2022-09-28T05:00:40.722Z,100323.44
2022-09-28T05:03:35.901Z,100318.09
2022-09-28T05:06:17.487Z,100322.59
2022-09-28T05:08:47.848Z,100321.03
2022-09-28T05:11:19.887Z,100329.44
2022-09-28T05:13:48.928Z,100331.28
2022-09-28T05:16:18.147Z,100318.84
2022-09-28T05:19:08.719Z,100329.69
2022-09-28T05:21:36.969Z,100311.75
2022-09-28T05:24:07.577Z,100325.56
2022-09-28T05:26:41.055Z,100321.34
2022-09-28T05:29:11.386Z,100328.88
2022-09-28T05:32:05.157Z,100330.53
2022-09-28T05:34:50.798Z,100326.19
2022-09-28T05:37:25.416Z,100318.19
2022-09-28T05:39:53.470Z,100315.91
2022-09-28T05:42:22.962Z,100316.25
2022-09-28T05:44:51.056Z,100315.59
2022-09-28T05:47:19.223Z,100319.19
2022-09-28T05:49:47.597Z,100327.88
2022-09-28T05:52:15.983Z,100329.34
2022-09-28T05:54:44.213Z,100307.16
2022-09-28T05:57:12.473Z,100318.19
2022-09-28T05:59:41.879Z,100335.31
2022-09-28T06:02:11.389Z,100327.59
2022-09-28T06:04:40.843Z,100332.38
2022-09-28T06:07:08.937Z,100340.56
2022-09-28T06:09:36.927Z,100333.28
2022-09-28T06:12:32.208Z,100326.50
2022-09-28T06:15:09.949Z,100339.28
2022-09-28T06:17:38.009Z,100331.41
2022-09-28T06:20:24.882Z,100346.19
2022-09-28T06:23:09.949Z,100342.00
2022-09-28T06:25:38.221Z,100329.81
2022-09-28T06:28:08.589Z,100348.72
2022-09-28T06:30:39.122Z,100352.41
2022-09-28T06:33:11.892Z,100353.56
2022-09-28T06:35:40.034Z,100352.75
2022-09-28T06:38:08.130Z,100344.75
2022-09-28T06:40:36.466Z,100353.28
2022-09-28T06:43:09.830Z,100360.41
2022-09-28T06:45:57.732Z,100360.75
2022-09-28T06:48:45.141Z,100345.81
2022-09-28T06:51:18.306Z,100368.75
2022-09-28T06:54:02.128Z,100366.25
2022-09-28T06:56:50.468Z,100388.34
2022-09-28T06:59:22.388Z,100385.94
2022-09-28T07:01:52.109Z,100384.63
2022-09-28T07:04:38.971Z,100389.72
2022-09-28T07:07:27.733Z,100381.66
2022-09-28T07:10:16.347Z,100373.38
2022-09-28T07:13:04.180Z,100373.19
2022-09-28T07:15:36.559Z,100380.47
2022-09-28T07:18:06.992Z,100374.09
2022-09-28T07:20:46.467Z,100373.38
2022-09-28T07:23:19.777Z,100378.00
2022-09-28T07:26:12.328Z,100360.06
2022-09-28T07:29:13.137Z,100378.28
2022-09-28T07:32:16.635Z,100373.88
2022-09-28T07:35:18.685Z,100346.84
2022-09-28T07:37:50.376Z,100377.47
2022-09-28T07:40:36.565Z,100384.00
2022-09-28T07:43:06.300Z,100353.19
2022-09-28T07:45:35.926Z,100368.09
2022-09-28T07:48:04.449Z,100367.19
2022-09-28T07:51:01.913Z,100369.41
2022-09-28T07:53:40.763Z,100370.44
2022-09-28T07:56:18.417Z,100379.00
2022-09-28T07:58:55.861Z,100383.78
2022-09-28T08:01:35.653Z,100383.13
2022-09-28T08:04:06.444Z,100375.53
2022-09-28T08:06:37.778Z,100369.47
2022-09-28T08:09:07.447Z,100366.50
2022-09-28T08:11:54.894Z,100382.09
2022-09-28T08:14:41.425Z,100389.09
2022-09-28T08:17:29.923Z,100384.66
2022-09-28T08:20:17.973Z,100390.19
2022-09-28T08:22:47.890Z,100390.38
2022-09-28T08:25:16.364Z,100354.38
2022-09-28T08:27:46.721Z,100353.06
2022-09-28T08:30:16.638Z,100393.75
2022-09-28T08:32:54.939Z,100375.31
2022-09-28T08:35:42.188Z,100395.41
2022-09-28T08:38:19.652Z,100392.56
2022-09-28T08:41:23.386Z,100399.19
2022-09-28T08:44:13.112Z,100384.59
2022-09-28T08:47:03.927Z,100404.31
2022-09-28T08:52:46.798Z,100386.16
2022-09-28T08:55:31.257Z,100401.22
2022-09-28T08:58:00.943Z,100409.13
2022-09-28T09:00:34.482Z,100388.38
2022-09-28T09:03:07.256Z,100401.88
2022-09-28T09:05:52.279Z,100397.94
2022-09-28T09:08:46.113Z,100370.69
2022-09-28T09:11:22.255Z,100407.84
2022-09-28T09:14:29.546Z,100384.53
2022-09-28T09:17:09.236Z,100401.28
2022-09-28T09:20:25.331Z,100382.06
2022-09-28T09:23:07.214Z,100367.03
2022-09-28T09:25:42.523Z,100393.94
2022-09-28T09:28:32.922Z,100398.19
2022-09-28T09:31:22.585Z,100389.16
2022-09-28T09:34:25.142Z,100371.66
2022-09-28T09:37:23.924Z,100358.28
2022-09-28T09:40:23.759Z,100358.47
2022-09-28T09:43:41.771Z,100359.50
2022-09-28T09:46:38.915Z,100385.78
2022-09-28T09:49:19.814Z,100382.97
2022-09-28T09:59:35.623Z,100395.88
2022-09-28T10:02:33.499Z,100394.28
2022-09-28T10:05:41.770Z,100360.47
2022-09-28T10:08:27.542Z,100354.78
2022-09-28T10:11:06.861Z,100355.78
2022-09-28T10:13:39.317Z,100375.44
2022-09-28T10:16:22.327Z,100384.94
2022-09-28T10:22:59.905Z,100381.25
2022-09-28T10:28:59.046Z,100367.91
2022-09-28T10:31:53.030Z,100397.97
2022-09-28T10:34:31.178Z,100378.03
2022-09-28T10:44:14.610Z,100399.31
2022-09-28T10:46:57.937Z,100377.38
2022-09-28T10:49:33.877Z,100411.00
2022-09-28T10:52:52.480Z,100403.97
2022-09-28T10:56:13.600Z,100335.38
2022-09-28T10:59:39.025Z,100386.34
2022-09-28T11:02:37.864Z,100374.75
2022-09-28T11:05:28.075Z,100359.88
2022-09-28T11:08:21.385Z,100380.19
2022-09-28T11:18:42.075Z,100374.22
2022-09-28T11:22:03.544Z,100324.41
2022-09-28T11:48:25.976Z,100366.44
2022-09-28T11:51:42.783Z,100363.03
2022-09-28T11:57:48.582Z,100364.69
2022-09-28T12:08:04.949Z,100372.69
2022-09-28T12:11:05.295Z,100341.03
2022-09-28T12:14:16.455Z,100352.81
2022-09-28T12:17:05.840Z,100322.88
2022-09-28T12:19:52.202Z,100323.63
2022-09-28T12:26:59.918Z,100356.88
2022-09-28T12:34:21.828Z,100332.25
2022-09-28T12:46:12.659Z,100337.63
2022-09-28T12:50:27.184Z,100338.56
2022-09-28T12:52:43.847Z,100319.66
2022-09-28T12:55:24.466Z,100306.09
2022-09-28T13:06:32.518Z,100318.75
2022-09-28T13:09:27.201Z,100317.59
2022-09-28T13:12:21.438Z,100312.91
2022-09-28T13:15:19.247Z,100335.59
2022-09-28T13:18:09.536Z,100301.63
2022-09-28T13:24:32.558Z,100332.22
2022-09-28T13:27:08.047Z,100310.91
2022-09-28T13:29:54.947Z,100338.13
2022-09-28T13:32:42.411Z,100336.53
2022-09-28T13:35:38.798Z,100336.38
2022-09-28T13:38:51.155Z,100330.63
2022-09-28T13:45:51.003Z,100290.91
2022-09-28T13:49:26.421Z,100330.75
2022-09-28T13:52:07.107Z,100304.44
2022-09-28T13:55:00.222Z,100307.34
2022-09-28T13:58:40.931Z,100324.81
2022-09-28T14:02:07.490Z,100332.69
2022-09-28T14:04:55.631Z,100302.44
2022-09-28T14:07:57.598Z,100305.03
2022-09-28T14:10:48.337Z,100263.09
2022-09-28T14:14:11.859Z,100297.81
2022-09-28T14:29:40.533Z,100305.31
2022-09-28T14:35:59.257Z,100311.44
2022-09-28T14:45:45.989Z,100292.72
2022-09-28T14:48:23.058Z,100275.88
2022-09-28T14:50:57.428Z,100299.81
2022-09-28T14:53:44.708Z,100305.13
2022-09-28T14:59:47.986Z,100307.81
2022-09-28T15:02:38.894Z,100292.00
2022-09-28T15:05:16.061Z,100317.09
2022-09-28T15:08:02.523Z,100313.53
2022-09-28T15:19:38.231Z,100303.50
2022-09-28T15:22:34.455Z,100321.78
2022-09-28T15:29:22.311Z,100308.25
2022-09-28T15:35:23.368Z,100304.50
2022-09-28T15:37:55.928Z,100303.09
2022-09-28T15:40:34.286Z,100300.16
2022-09-28T15:43:22.624Z,100307.44
2022-09-28T15:46:08.409Z,100278.47
2022-09-28T15:48:41.775Z,100267.97
2022-09-28T15:51:12.003Z,100302.88
2022-09-28T15:54:41.762Z,100301.63
2022-09-28T15:57:50.982Z,100265.22
2022-09-28T16:00:36.843Z,100286.44
2022-09-28T16:03:26.030Z,100290.34
2022-09-28T16:06:10.633Z,100260.94
2022-09-28T16:08:43.289Z,100272.69
2022-09-28T16:11:16.305Z,100256.84
2022-09-28T16:13:55.588Z,100293.72
2022-09-28T16:16:28.187Z,100290.81
2022-09-28T16:18:59.730Z,100274.47
2022-09-28T16:21:34.405Z,100285.13
2022-09-28T16:24:03.430Z,100262.81
2022-09-28T16:26:37.404Z,100272.53
2022-09-28T16:29:27.689Z,100243.91
2022-09-28T16:37:55.574Z,100287.91
2022-09-28T17:02:45.714Z,100289.69
2022-09-28T17:06:41.170Z,100266.44
2022-09-28T17:09:11.343Z,100291.66
2022-09-28T17:11:43.682Z,100268.31
2022-09-28T17:14:23.596Z,100292.94
2022-09-28T17:17:08.295Z,100307.06
2022-09-28T17:19:41.842Z,100291.28
2022-09-28T17:32:41.835Z,100341.16
2022-09-28T17:36:41.272Z,100345.63
2022-09-28T17:40:52.037Z,100338.16
2022-09-28T17:48:17.652Z,100308.81
2022-09-28T18:07:31.165Z,100310.19
2022-09-28T18:16:35.115Z,100306.66
2022-09-28T18:19:06.454Z,100288.59
2022-09-28T18:21:40.516Z,100295.38
2022-09-28T18:24:09.258Z,100278.44
2022-09-28T18:26:38.732Z,100278.47
2022-09-28T18:29:07.236Z,100272.16
2022-09-28T18:31:38.109Z,100315.00
2022-09-28T18:34:08.076Z,100308.06
2022-09-28T18:36:36.359Z,100314.34
2022-09-28T18:39:19.832Z,100321.16
2022-09-28T18:41:48.300Z,100306.41
2022-09-28T18:44:18.602Z,100265.25
2022-09-28T18:46:47.152Z,100316.34
2022-09-28T18:49:17.107Z,100277.84
2022-09-28T18:51:45.449Z,100320.97
2022-09-28T18:54:14.068Z,100330.25
2022-09-28T18:56:42.332Z,100308.59
2022-09-28T18:59:12.343Z,100306.59
2022-09-28T19:01:44.121Z,100292.66
2022-09-28T19:04:40.282Z,100298.22
2022-09-28T19:07:10.237Z,100281.28
2022-09-28T19:09:43.902Z,100289.41
2022-09-28T19:12:19.265Z,100294.16
2022-09-28T19:14:52.161Z,100288.84
2022-09-28T19:20:27.988Z,100314.72
2022-09-28T19:22:57.902Z,100277.84
2022-09-28T19:25:29.342Z,100328.34
2022-09-28T19:27:57.999Z,100292.78
2022-09-28T19:30:27.721Z,100300.06
2022-09-28T19:32:56.275Z,100316.81
2022-09-28T19:35:24.569Z,100259.03
2022-09-28T19:40:40.292Z,100296.34
2022-09-28T19:43:08.717Z,100267.06
2022-09-28T19:45:39.841Z,100326.44
2022-09-28T19:48:08.489Z,100303.22
2022-09-28T19:50:36.980Z,100285.72
2022-09-28T19:53:09.140Z,100330.66
2022-09-28T19:55:37.591Z,100297.16
2022-09-28T19:58:06.749Z,100282.22
2022-09-28T20:00:37.049Z,100308.47
2022-09-28T20:03:05.452Z,100296.97
2022-09-28T20:05:34.164Z,100334.13
2022-09-28T20:10:40.818Z,100322.34
2022-09-28T20:13:11.583Z,100299.06
2022-09-28T20:15:40.055Z,100308.06
2022-09-28T20:18:09.419Z,100320.06
2022-09-28T20:20:38.033Z,100322.06
2022-09-28T20:23:06.406Z,100325.56
2022-09-28T20:25:34.921Z,100329.06
2022-09-28T20:28:04.875Z,100304.50
2022-09-28T20:30:33.397Z,100290.22
2022-09-28T20:33:01.695Z,100315.50
2022-09-28T20:35:33.315Z,100307.50
2022-09-28T20:38:35.864Z,100310.34
2022-09-28T20:41:04.372Z,100328.09
2022-09-28T20:43:35.148Z,100287.00
2022-09-28T20:46:03.989Z,100337.56
2022-09-28T20:48:32.349Z,100286.00
2022-09-28T20:51:03.434Z,100331.16
2022-09-28T20:53:31.698Z,100304.28
2022-09-28T20:56:01.059Z,100343.09
2022-09-28T20:58:29.539Z,100321.13
2022-09-28T21:01:08.028Z,100292.91
2022-09-28T21:03:36.559Z,100343.34
2022-09-28T21:06:07.665Z,100322.88
2022-09-28T21:08:39.997Z,100335.34
2022-09-28T21:11:08.550Z,100309.16
2022-09-28T21:13:43.285Z,100342.91
2022-09-28T21:16:13.891Z,100302.28
2022-09-28T21:18:42.166Z,100290.66
2022-09-28T21:21:12.422Z,100325.50
2022-09-28T21:23:40.881Z,100298.66
2022-09-28T21:26:09.913Z,100299.66
2022-09-28T21:28:38.434Z,100296.53
2022-09-28T21:31:07.727Z,100323.06
2022-09-28T21:33:38.123Z,100317.66
2022-09-28T21:36:08.358Z,100303.31
2022-09-28T21:38:36.918Z,100319.09
2022-09-28T21:41:05.192Z,100331.25
2022-09-28T21:43:33.661Z,100353.94
2022-09-28T21:46:02.333Z,100348.13
2022-09-28T21:48:30.716Z,100333.19
2022-09-28T21:51:01.429Z,100348.50
2022-09-28T21:53:30.959Z,100320.94
2022-09-28T21:56:00.167Z,100341.00
2022-09-28T21:58:29.428Z,100335.91
2022-09-28T22:01:02.413Z,100322.53
2022-09-28T22:03:30.793Z,100336.00
2022-09-28T22:06:02.892Z,100359.25
2022-09-28T22:08:34.497Z,100344.31
2022-09-28T22:11:18.213Z,100325.94
2022-09-28T22:13:50.737Z,100355.66
2022-09-28T22:16:23.015Z,100346.53
2022-09-28T22:18:51.591Z,100362.03
2022-09-28T22:21:23.618Z,100315.09
2022-09-28T22:23:52.272Z,100363.94
2022-09-28T22:26:23.458Z,100317.91
2022-09-28T22:28:53.368Z,100334.25
2022-09-28T22:31:23.426Z,100354.16
2022-09-28T22:33:52.038Z,100296.38
2022-09-28T22:36:24.680Z,100329.91
2022-09-28T22:38:53.197Z,100318.78
2022-09-28T22:41:23.487Z,100324.22
2022-09-28T22:43:52.674Z,100365.78
2022-09-28T22:46:22.417Z,100345.81
2022-09-28T22:48:53.071Z,100317.91
2022-09-28T22:51:25.862Z,100363.25
2022-09-28T22:53:54.466Z,100357.94
2022-09-28T22:56:27.669Z,100325.06
2022-09-28T22:58:59.549Z,100342.16
2022-09-28T23:01:31.614Z,100358.47
2022-09-28T23:04:01.036Z,100321.09
2022-09-28T23:06:33.316Z,100359.50
2022-09-28T23:09:02.534Z,100339.38
2022-09-28T23:11:30.882Z,100361.78
2022-09-28T23:13:59.836Z,100312.16
2022-09-28T23:16:28.366Z,100344.53
2022-09-28T23:18:57.000Z,100345.22
2022-09-28T23:21:27.478Z,100322.63
2022-09-28T23:23:58.307Z,100321.31
2022-09-28T23:26:27.596Z,100323.47
2022-09-28T23:28:56.047Z,100350.84
2022-09-28T23:31:25.299Z,100328.78
2022-09-28T23:33:53.664Z,100306.69
2022-09-28T23:36:22.634Z,100328.94
2022-09-28T23:38:51.060Z,100335.56
2022-09-28T23:41:21.047Z,100314.31
2022-09-28T23:43:49.667Z,100341.41
2022-09-28T23:46:21.075Z,100290.09
2022-09-28T23:48:50.075Z,100322.13
2022-09-28T23:51:18.459Z,100305.34
2022-09-28T23:53:46.987Z,100298.06
2022-09-28T23:56:15.625Z,100305.41
2022-09-28T23:58:45.449Z,100333.63
